sensor_id;sensor_type;location;lat;lon;timestamp;P1;durP1;ratioP1;P2;durP2;ratioP2
10719;SDS011;5411;58.386;15.560;2024-03-25T00:01:29;11.20;;;5.33;;
10719;SDS011;5411;58.386;15.560;2024-03-25T00:03:56;8.73;;;5.10;;
10719;SDS011;5411;58.386;15.560;2024-03-25T00:06:22;7.37;;;5.23;;
10719;SDS011;5411;58.386;15.560;2024-03-25T00:08:49;7.37;;;4.80;;
10719;SDS011;5411;58.386;15.560;2024-03-25T00:11:15;9.43;;;4.40;;
10719;SDS011;5411;58.386;15.560;2024-03-25T00:13:42;6.07;;;4.20;;
10719;SDS011;5411;58.386;15.560;2024-03-25T00:16:08;8.67;;;4.60;;
10719;SDS011;5411;58.386;15.560;2024-03-25T00:18:37;6.67;;;4.27;;
10719;SDS011;5411;58.386;15.560;2024-03-25T00:21:03;7.37;;;4.30;;
10719;SDS011;5411;58.386;15.560;2024-03-25T00:23:30;7.93;;;4.67;;
10719;SDS011;5411;58.386;15.560;2024-03-25T00:25:56;10.47;;;4.77;;
10719;SDS011;5411;58.386;15.560;2024-03-25T00:28:23;9.47;;;4.80;;
10719;SDS011;5411;58.386;15.560;2024-03-25T00:30:48;6.60;;;4.30;;
10719;SDS011;5411;58.386;15.560;2024-03-25T00:33:17;6.83;;;4.50;;
10719;SDS011;5411;58.386;15.560;2024-03-25T00:35:43;10.60;;;4.67;;
10719;SDS011;5411;58.386;15.560;2024-03-25T00:38:11;7.27;;;4.53;;
10719;SDS011;5411;58.386;15.560;2024-03-25T00:40:42;6.40;;;4.60;;
10719;SDS011;5411;58.386;15.560;2024-03-25T00:43:09;9.93;;;5.37;;
10719;SDS011;5411;58.386;15.560;2024-03-25T00:45:35;8.50;;;4.50;;
10719;SDS011;5411;58.386;15.560;2024-03-25T00:48:02;6.07;;;5.00;;
10719;SDS011;5411;58.386;15.560;2024-03-25T00:50:29;8.70;;;5.10;;
10719;SDS011;5411;58.386;15.560;2024-03-25T00:52:56;9.60;;;5.20;;
10719;SDS011;5411;58.386;15.560;2024-03-25T00:55:22;5.13;;;3.83;;
10719;SDS011;5411;58.386;15.560;2024-03-25T00:57:50;9.00;;;4.63;;
10719;SDS011;5411;58.386;15.560;2024-03-25T01:00:16;6.73;;;4.00;;
10719;SDS011;5411;58.386;15.560;2024-03-25T01:02:43;6.90;;;4.40;;
10719;SDS011;5411;58.386;15.560;2024-03-25T01:05:10;5.00;;;3.10;;
10719;SDS011;5411;58.386;15.560;2024-03-25T01:07:37;5.47;;;3.73;;
10719;SDS011;5411;58.386;15.560;2024-03-25T01:10:03;6.27;;;4.20;;
10719;SDS011;5411;58.386;15.560;2024-03-25T01:12:32;7.37;;;3.90;;
10719;SDS011;5411;58.386;15.560;2024-03-25T01:14:58;9.50;;;4.77;;
10719;SDS011;5411;58.386;15.560;2024-03-25T01:17:25;8.33;;;4.07;;
10719;SDS011;5411;58.386;15.560;2024-03-25T01:19:51;8.33;;;4.40;;
10719;SDS011;5411;58.386;15.560;2024-03-25T01:22:17;7.23;;;4.67;;
10719;SDS011;5411;58.386;15.560;2024-03-25T01:24:43;7.20;;;4.87;;
10719;SDS011;5411;58.386;15.560;2024-03-25T01:27:11;5.73;;;3.50;;
10719;SDS011;5411;58.386;15.560;2024-03-25T01:29:36;8.97;;;4.33;;
10719;SDS011;5411;58.386;15.560;2024-03-25T01:32:04;5.20;;;4.30;;
10719;SDS011;5411;58.386;15.560;2024-03-25T01:34:30;8.20;;;3.80;;
10719;SDS011;5411;58.386;15.560;2024-03-25T01:37:03;6.33;;;3.73;;
10719;SDS011;5411;58.386;15.560;2024-03-25T01:39:29;6.03;;;3.77;;
10719;SDS011;5411;58.386;15.560;2024-03-25T01:41:56;9.77;;;4.40;;
10719;SDS011;5411;58.386;15.560;2024-03-25T01:44:22;5.73;;;3.60;;
10719;SDS011;5411;58.386;15.560;2024-03-25T01:46:52;6.97;;;4.17;;
10719;SDS011;5411;58.386;15.560;2024-03-25T01:49:18;7.53;;;3.97;;
10719;SDS011;5411;58.386;15.560;2024-03-25T01:51:46;9.30;;;4.70;;
10719;SDS011;5411;58.386;15.560;2024-03-25T01:54:12;7.97;;;3.47;;
10719;SDS011;5411;58.386;15.560;2024-03-25T01:56:43;7.00;;;4.10;;
10719;SDS011;5411;58.386;15.560;2024-03-25T01:59:12;5.70;;;3.60;;
10719;SDS011;5411;58.386;15.560;2024-03-25T02:01:43;5.67;;;3.60;;
10719;SDS011;5411;58.386;15.560;2024-03-25T02:04:10;7.30;;;4.03;;
10719;SDS011;5411;58.386;15.560;2024-03-25T02:06:39;5.87;;;3.63;;
10719;SDS011;5411;58.386;15.560;2024-03-25T02:09:07;7.07;;;4.37;;
10719;SDS011;5411;58.386;15.560;2024-03-25T02:11:35;7.97;;;4.27;;
10719;SDS011;5411;58.386;15.560;2024-03-25T02:14:02;6.93;;;3.90;;
10719;SDS011;5411;58.386;15.560;2024-03-25T02:16:29;6.23;;;3.87;;
10719;SDS011;5411;58.386;15.560;2024-03-25T02:18:55;5.93;;;3.63;;
10719;SDS011;5411;58.386;15.560;2024-03-25T02:21:21;6.30;;;4.13;;
10719;SDS011;5411;58.386;15.560;2024-03-25T02:23:47;7.47;;;3.90;;
10719;SDS011;5411;58.386;15.560;2024-03-25T02:26:17;6.33;;;3.67;;
10719;SDS011;5411;58.386;15.560;2024-03-25T02:28:43;4.33;;;3.00;;
10719;SDS011;5411;58.386;15.560;2024-03-25T02:31:10;5.17;;;3.50;;
10719;SDS011;5411;58.386;15.560;2024-03-25T02:33:36;6.63;;;3.30;;
10719;SDS011;5411;58.386;15.560;2024-03-25T02:36:03;5.57;;;3.40;;
10719;SDS011;5411;58.386;15.560;2024-03-25T02:38:29;6.87;;;3.53;;
10719;SDS011;5411;58.386;15.560;2024-03-25T02:40:58;6.53;;;3.60;;
10719;SDS011;5411;58.386;15.560;2024-03-25T02:43:25;8.13;;;3.40;;
10719;SDS011;5411;58.386;15.560;2024-03-25T02:45:52;6.30;;;3.87;;
10719;SDS011;5411;58.386;15.560;2024-03-25T02:48:18;3.30;;;3.00;;
10719;SDS011;5411;58.386;15.560;2024-03-25T02:50:45;8.10;;;4.07;;
10719;SDS011;5411;58.386;15.560;2024-03-25T02:53:11;5.87;;;3.37;;
10719;SDS011;5411;58.386;15.560;2024-03-25T02:55:38;6.60;;;3.17;;
10719;SDS011;5411;58.386;15.560;2024-03-25T02:58:04;5.40;;;3.77;;
10719;SDS011;5411;58.386;15.560;2024-03-25T03:00:30;6.93;;;3.80;;
10719;SDS011;5411;58.386;15.560;2024-03-25T03:02:56;7.73;;;3.97;;
10719;SDS011;5411;58.386;15.560;2024-03-25T03:05:23;4.50;;;2.73;;
10719;SDS011;5411;58.386;15.560;2024-03-25T03:07:50;5.50;;;3.57;;
10719;SDS011;5411;58.386;15.560;2024-03-25T03:10:17;5.03;;;3.53;;
10719;SDS011;5411;58.386;15.560;2024-03-25T03:12:43;3.80;;;3.40;;
10719;SDS011;5411;58.386;15.560;2024-03-25T03:15:10;4.83;;;3.77;;
10719;SDS011;5411;58.386;15.560;2024-03-25T03:17:36;5.27;;;3.40;;
10719;SDS011;5411;58.386;15.560;2024-03-25T03:20:03;4.90;;;3.60;;
10719;SDS011;5411;58.386;15.560;2024-03-25T03:22:29;4.50;;;3.20;;
10719;SDS011;5411;58.386;15.560;2024-03-25T03:24:56;7.60;;;4.00;;
10719;SDS011;5411;58.386;15.560;2024-03-25T03:27:23;7.10;;;2.93;;
10719;SDS011;5411;58.386;15.560;2024-03-25T03:29:50;8.17;;;3.70;;
10719;SDS011;5411;58.386;15.560;2024-03-25T03:32:21;4.70;;;3.10;;
10719;SDS011;5411;58.386;15.560;2024-03-25T03:34:49;5.93;;;3.27;;
10719;SDS011;5411;58.386;15.560;2024-03-25T03:37:14;7.87;;;3.50;;
10719;SDS011;5411;58.386;15.560;2024-03-25T03:39:41;7.50;;;4.37;;
10719;SDS011;5411;58.386;15.560;2024-03-25T03:42:07;4.63;;;3.20;;
10719;SDS011;5411;58.386;15.560;2024-03-25T03:44:34;3.37;;;3.00;;
10719;SDS011;5411;58.386;15.560;2024-03-25T03:47:00;5.43;;;3.60;;
10719;SDS011;5411;58.386;15.560;2024-03-25T03:49:27;4.63;;;3.00;;
10719;SDS011;5411;58.386;15.560;2024-03-25T03:51:53;4.83;;;3.43;;
10719;SDS011;5411;58.386;15.560;2024-03-25T03:54:22;5.70;;;3.47;;
10719;SDS011;5411;58.386;15.560;2024-03-25T03:56:48;5.67;;;3.60;;
10719;SDS011;5411;58.386;15.560;2024-03-25T03:59:15;5.17;;;3.47;;
10719;SDS011;5411;58.386;15.560;2024-03-25T04:01:41;6.43;;;3.27;;
10719;SDS011;5411;58.386;15.560;2024-03-25T04:04:08;5.93;;;3.50;;
10719;SDS011;5411;58.386;15.560;2024-03-25T04:06:35;7.63;;;3.93;;
10719;SDS011;5411;58.386;15.560;2024-03-25T04:09:06;4.80;;;3.90;;
10719;SDS011;5411;58.386;15.560;2024-03-25T04:11:35;4.57;;;3.40;;
10719;SDS011;5411;58.386;15.560;2024-03-25T04:14:03;4.30;;;3.57;;
10719;SDS011;5411;58.386;15.560;2024-03-25T04:16:29;5.33;;;3.40;;
10719;SDS011;5411;58.386;15.560;2024-03-25T04:18:57;5.07;;;4.07;;
10719;SDS011;5411;58.386;15.560;2024-03-25T04:21:23;6.63;;;3.67;;
10719;SDS011;5411;58.386;15.560;2024-03-25T04:23:50;5.37;;;3.60;;
10719;SDS011;5411;58.386;15.560;2024-03-25T04:26:16;5.07;;;3.50;;
10719;SDS011;5411;58.386;15.560;2024-03-25T04:28:43;6.10;;;3.47;;
10719;SDS011;5411;58.386;15.560;2024-03-25T04:31:09;4.33;;;3.47;;
10719;SDS011;5411;58.386;15.560;2024-03-25T04:33:36;3.30;;;2.90;;
10719;SDS011;5411;58.386;15.560;2024-03-25T04:36:02;7.20;;;3.60;;
10719;SDS011;5411;58.386;15.560;2024-03-25T04:38:30;7.37;;;3.27;;
10719;SDS011;5411;58.386;15.560;2024-03-25T04:40:56;4.23;;;2.93;;
10719;SDS011;5411;58.386;15.560;2024-03-25T04:43:22;5.67;;;3.70;;
10719;SDS011;5411;58.386;15.560;2024-03-25T04:45:48;3.80;;;2.77;;
10719;SDS011;5411;58.386;15.560;2024-03-25T04:48:14;3.50;;;3.10;;
10719;SDS011;5411;58.386;15.560;2024-03-25T04:50:40;3.97;;;3.30;;
10719;SDS011;5411;58.386;15.560;2024-03-25T04:53:06;5.57;;;2.67;;
10719;SDS011;5411;58.386;15.560;2024-03-25T04:55:32;3.80;;;2.77;;
10719;SDS011;5411;58.386;15.560;2024-03-25T04:57:59;3.50;;;2.80;;
10719;SDS011;5411;58.386;15.560;2024-03-25T05:00:28;4.27;;;2.77;;
10719;SDS011;5411;58.386;15.560;2024-03-25T05:02:54;4.00;;;2.60;;
10719;SDS011;5411;58.386;15.560;2024-03-25T05:05:20;4.67;;;2.70;;
10719;SDS011;5411;58.386;15.560;2024-03-25T05:07:46;3.63;;;2.57;;
10719;SDS011;5411;58.386;15.560;2024-03-25T05:10:11;3.07;;;2.53;;
10719;SDS011;5411;58.386;15.560;2024-03-25T05:12:38;6.37;;;2.60;;
10719;SDS011;5411;58.386;15.560;2024-03-25T05:15:04;4.97;;;2.73;;
10719;SDS011;5411;58.386;15.560;2024-03-25T05:17:30;3.07;;;2.47;;
10719;SDS011;5411;58.386;15.560;2024-03-25T05:20:01;4.43;;;2.73;;
10719;SDS011;5411;58.386;15.560;2024-03-25T05:22:29;4.53;;;2.57;;
10719;SDS011;5411;58.386;15.560;2024-03-25T05:24:55;3.27;;;2.30;;
10719;SDS011;5411;58.386;15.560;2024-03-25T05:27:21;3.70;;;2.60;;
10719;SDS011;5411;58.386;15.560;2024-03-25T05:29:48;3.13;;;2.33;;
10719;SDS011;5411;58.386;15.560;2024-03-25T05:32:17;4.47;;;2.73;;
10719;SDS011;5411;58.386;15.560;2024-03-25T05:34:43;2.87;;;2.30;;
10719;SDS011;5411;58.386;15.560;2024-03-25T05:37:09;2.73;;;2.53;;
10719;SDS011;5411;58.386;15.560;2024-03-25T05:39:35;3.87;;;2.30;;
10719;SDS011;5411;58.386;15.560;2024-03-25T05:42:01;7.30;;;2.93;;
10719;SDS011;5411;58.386;15.560;2024-03-25T05:44:27;4.00;;;2.87;;
10719;SDS011;5411;58.386;15.560;2024-03-25T05:46:53;5.60;;;2.93;;
10719;SDS011;5411;58.386;15.560;2024-03-25T05:49:19;4.53;;;2.73;;
10719;SDS011;5411;58.386;15.560;2024-03-25T05:51:45;3.43;;;2.50;;
10719;SDS011;5411;58.386;15.560;2024-03-25T05:54:11;3.07;;;2.40;;
10719;SDS011;5411;58.386;15.560;2024-03-25T05:56:40;3.70;;;2.43;;
10719;SDS011;5411;58.386;15.560;2024-03-25T05:59:06;4.73;;;2.90;;
10719;SDS011;5411;58.386;15.560;2024-03-25T06:01:32;2.77;;;2.17;;
10719;SDS011;5411;58.386;15.560;2024-03-25T06:03:59;3.30;;;2.20;;
10719;SDS011;5411;58.386;15.560;2024-03-25T06:06:25;4.93;;;2.43;;
10719;SDS011;5411;58.386;15.560;2024-03-25T06:08:51;4.23;;;2.70;;
10719;SDS011;5411;58.386;15.560;2024-03-25T06:11:17;6.27;;;2.70;;
10719;SDS011;5411;58.386;15.560;2024-03-25T06:13:47;3.57;;;2.37;;
10719;SDS011;5411;58.386;15.560;2024-03-25T06:16:14;5.80;;;2.97;;
10719;SDS011;5411;58.386;15.560;2024-03-25T06:18:40;2.40;;;2.20;;
10719;SDS011;5411;58.386;15.560;2024-03-25T06:21:06;5.93;;;2.30;;
10719;SDS011;5411;58.386;15.560;2024-03-25T06:23:32;2.10;;;1.87;;
10719;SDS011;5411;58.386;15.560;2024-03-25T06:25:58;3.60;;;2.47;;
10719;SDS011;5411;58.386;15.560;2024-03-25T06:28:25;3.07;;;2.33;;
10719;SDS011;5411;58.386;15.560;2024-03-25T06:30:51;3.00;;;2.20;;
10719;SDS011;5411;58.386;15.560;2024-03-25T06:33:35;2.57;;;2.23;;
10719;SDS011;5411;58.386;15.560;2024-03-25T06:36:34;2.43;;;2.20;;
10719;SDS011;5411;58.386;15.560;2024-03-25T06:39:08;2.57;;;2.10;;
10719;SDS011;5411;58.386;15.560;2024-03-25T06:41:34;4.50;;;2.30;;
10719;SDS011;5411;58.386;15.560;2024-03-25T06:44:00;5.23;;;2.57;;
10719;SDS011;5411;58.386;15.560;2024-03-25T06:46:26;3.87;;;1.90;;
10719;SDS011;5411;58.386;15.560;2024-03-25T06:48:52;4.17;;;2.13;;
10719;SDS011;5411;58.386;15.560;2024-03-25T06:51:18;6.73;;;2.33;;
10719;SDS011;5411;58.386;15.560;2024-03-25T06:53:44;2.20;;;2.00;;
10719;SDS011;5411;58.386;15.560;2024-03-25T06:56:10;3.13;;;1.90;;
10719;SDS011;5411;58.386;15.560;2024-03-25T06:58:36;1.70;;;1.60;;
10719;SDS011;5411;58.386;15.560;2024-03-25T07:01:09;3.17;;;2.83;;
10719;SDS011;5411;58.386;15.560;2024-03-25T07:03:35;2.43;;;1.83;;
10719;SDS011;5411;58.386;15.560;2024-03-25T07:06:01;7.43;;;2.40;;
10719;SDS011;5411;58.386;15.560;2024-03-25T07:08:28;3.20;;;2.17;;
10719;SDS011;5411;58.386;15.560;2024-03-25T07:10:54;3.57;;;2.00;;
10719;SDS011;5411;58.386;15.560;2024-03-25T07:13:20;3.47;;;2.00;;
10719;SDS011;5411;58.386;15.560;2024-03-25T07:15:46;5.10;;;2.10;;
10719;SDS011;5411;58.386;15.560;2024-03-25T07:18:12;2.80;;;1.80;;
10719;SDS011;5411;58.386;15.560;2024-03-25T07:20:38;2.17;;;1.97;;
10719;SDS011;5411;58.386;15.560;2024-03-25T07:23:05;2.20;;;2.03;;
10719;SDS011;5411;58.386;15.560;2024-03-25T07:25:31;3.00;;;2.00;;
10719;SDS011;5411;58.386;15.560;2024-03-25T07:27:57;2.57;;;2.00;;
10719;SDS011;5411;58.386;15.560;2024-03-25T07:30:25;3.67;;;1.80;;
10719;SDS011;5411;58.386;15.560;2024-03-25T07:32:51;3.87;;;1.93;;
10719;SDS011;5411;58.386;15.560;2024-03-25T07:35:17;2.10;;;1.90;;
10719;SDS011;5411;58.386;15.560;2024-03-25T07:37:43;3.57;;;1.97;;
10719;SDS011;5411;58.386;15.560;2024-03-25T07:40:10;3.87;;;2.17;;
10719;SDS011;5411;58.386;15.560;2024-03-25T07:42:36;9.93;;;2.10;;
10719;SDS011;5411;58.386;15.560;2024-03-25T07:45:02;2.47;;;1.80;;
10719;SDS011;5411;58.386;15.560;2024-03-25T07:47:28;4.43;;;1.70;;
10719;SDS011;5411;58.386;15.560;2024-03-25T07:49:54;3.43;;;2.90;;
10719;SDS011;5411;58.386;15.560;2024-03-25T07:52:20;3.93;;;2.20;;
10719;SDS011;5411;58.386;15.560;2024-03-25T07:54:46;4.87;;;1.90;;
10719;SDS011;5411;58.386;15.560;2024-03-25T07:57:12;6.43;;;2.30;;
10719;SDS011;5411;58.386;15.560;2024-03-25T07:59:38;4.63;;;2.10;;
10719;SDS011;5411;58.386;15.560;2024-03-25T08:02:04;3.23;;;2.30;;
10719;SDS011;5411;58.386;15.560;2024-03-25T08:04:31;3.07;;;1.60;;
10719;SDS011;5411;58.386;15.560;2024-03-25T08:06:57;3.00;;;2.70;;
10719;SDS011;5411;58.386;15.560;2024-03-25T08:09:23;2.83;;;1.90;;
10719;SDS011;5411;58.386;15.560;2024-03-25T08:11:49;3.93;;;2.43;;
10719;SDS011;5411;58.386;15.560;2024-03-25T08:14:15;3.80;;;2.33;;
10719;SDS011;5411;58.386;15.560;2024-03-25T08:16:41;3.20;;;2.00;;
10719;SDS011;5411;58.386;15.560;2024-03-25T08:19:06;3.13;;;2.07;;
10719;SDS011;5411;58.386;15.560;2024-03-25T08:21:32;2.13;;;1.80;;
10719;SDS011;5411;58.386;15.560;2024-03-25T08:23:58;1.93;;;1.80;;
10719;SDS011;5411;58.386;15.560;2024-03-25T08:26:27;3.50;;;1.80;;
10719;SDS011;5411;58.386;15.560;2024-03-25T08:28:59;4.97;;;2.10;;
10719;SDS011;5411;58.386;15.560;2024-03-25T08:31:25;2.90;;;2.03;;
10719;SDS011;5411;58.386;15.560;2024-03-25T08:33:51;1.60;;;1.50;;
10719;SDS011;5411;58.386;15.560;2024-03-25T08:36:17;2.70;;;1.90;;
10719;SDS011;5411;58.386;15.560;2024-03-25T08:38:43;6.63;;;2.30;;
10719;SDS011;5411;58.386;15.560;2024-03-25T08:41:10;5.43;;;2.37;;
10719;SDS011;5411;58.386;15.560;2024-03-25T08:43:36;2.43;;;2.23;;
10719;SDS011;5411;58.386;15.560;2024-03-25T08:46:01;2.97;;;2.33;;
10719;SDS011;5411;58.386;15.560;2024-03-25T08:48:27;3.73;;;2.30;;
10719;SDS011;5411;58.386;15.560;2024-03-25T08:50:53;3.60;;;2.10;;
10719;SDS011;5411;58.386;15.560;2024-03-25T08:53:22;3.57;;;2.10;;
10719;SDS011;5411;58.386;15.560;2024-03-25T08:55:48;1.80;;;1.60;;
10719;SDS011;5411;58.386;15.560;2024-03-25T08:58:14;2.87;;;2.03;;
10719;SDS011;5411;58.386;15.560;2024-03-25T09:00:42;2.47;;;1.70;;
10719;SDS011;5411;58.386;15.560;2024-03-25T09:03:08;3.13;;;2.00;;
10719;SDS011;5411;58.386;15.560;2024-03-25T09:05:34;3.50;;;1.90;;
10719;SDS011;5411;58.386;15.560;2024-03-25T09:08:01;3.53;;;2.10;;
10719;SDS011;5411;58.386;15.560;2024-03-25T09:10:26;4.03;;;1.97;;
10719;SDS011;5411;58.386;15.560;2024-03-25T09:13:14;2.50;;;1.90;;
10719;SDS011;5411;58.386;15.560;2024-03-25T09:15:39;2.70;;;2.30;;
10719;SDS011;5411;58.386;15.560;2024-03-25T09:18:05;2.77;;;1.50;;
10719;SDS011;5411;58.386;15.560;2024-03-25T09:20:32;2.67;;;1.87;;
10719;SDS011;5411;58.386;15.560;2024-03-25T09:22:58;4.30;;;2.00;;
10719;SDS011;5411;58.386;15.560;2024-03-25T09:25:24;2.47;;;1.73;;
10719;SDS011;5411;58.386;15.560;2024-03-25T09:27:50;3.47;;;2.07;;
10719;SDS011;5411;58.386;15.560;2024-03-25T09:30:17;2.00;;;1.60;;
10719;SDS011;5411;58.386;15.560;2024-03-25T09:32:44;2.90;;;1.97;;
10719;SDS011;5411;58.386;15.560;2024-03-25T09:35:11;3.23;;;1.77;;
10719;SDS011;5411;58.386;15.560;2024-03-25T09:37:38;3.03;;;1.80;;
10719;SDS011;5411;58.386;15.560;2024-03-25T09:40:04;2.77;;;1.53;;
10719;SDS011;5411;58.386;15.560;2024-03-25T09:42:48;2.57;;;1.73;;
10719;SDS011;5411;58.386;15.560;2024-03-25T09:45:18;2.93;;;2.10;;
10719;SDS011;5411;58.386;15.560;2024-03-25T09:47:45;4.20;;;1.87;;
10719;SDS011;5411;58.386;15.560;2024-03-25T09:50:13;2.57;;;1.97;;
10719;SDS011;5411;58.386;15.560;2024-03-25T09:52:40;2.50;;;1.80;;
10719;SDS011;5411;58.386;15.560;2024-03-25T09:55:06;1.80;;;1.70;;
10719;SDS011;5411;58.386;15.560;2024-03-25T09:57:33;3.27;;;1.93;;
10719;SDS011;5411;58.386;15.560;2024-03-25T10:00:00;3.50;;;1.87;;
10719;SDS011;5411;58.386;15.560;2024-03-25T10:02:27;3.13;;;1.80;;
10719;SDS011;5411;58.386;15.560;2024-03-25T10:04:55;2.40;;;1.80;;
10719;SDS011;5411;58.386;15.560;2024-03-25T10:07:24;1.97;;;1.70;;
10719;SDS011;5411;58.386;15.560;2024-03-25T10:09:51;2.33;;;1.80;;
10719;SDS011;5411;58.386;15.560;2024-03-25T10:12:17;3.57;;;2.10;;
10719;SDS011;5411;58.386;15.560;2024-03-25T10:14:43;3.50;;;1.70;;
10719;SDS011;5411;58.386;15.560;2024-03-25T10:17:12;4.30;;;2.00;;
10719;SDS011;5411;58.386;15.560;2024-03-25T10:19:38;2.57;;;1.80;;
10719;SDS011;5411;58.386;15.560;2024-03-25T10:22:08;4.40;;;2.80;;
10719;SDS011;5411;58.386;15.560;2024-03-25T10:24:44;4.43;;;3.10;;
10719;SDS011;5411;58.386;15.560;2024-03-25T10:27:17;6.20;;;3.60;;
10719;SDS011;5411;58.386;15.560;2024-03-25T10:29:53;4.03;;;3.00;;
10719;SDS011;5411;58.386;15.560;2024-03-25T10:32:20;2.57;;;1.90;;
10719;SDS011;5411;58.386;15.560;2024-03-25T10:34:47;2.20;;;1.53;;
10719;SDS011;5411;58.386;15.560;2024-03-25T10:37:13;2.20;;;2.00;;
10719;SDS011;5411;58.386;15.560;2024-03-25T10:39:50;2.67;;;1.67;;
10719;SDS011;5411;58.386;15.560;2024-03-25T10:42:22;3.20;;;2.03;;
10719;SDS011;5411;58.386;15.560;2024-03-25T10:44:49;2.17;;;1.97;;
10719;SDS011;5411;58.386;15.560;2024-03-25T10:50:18;2.50;;;1.73;;
10719;SDS011;5411;58.386;15.560;2024-03-25T10:52:50;2.97;;;1.80;;
10719;SDS011;5411;58.386;15.560;2024-03-25T10:55:19;2.17;;;1.80;;
10719;SDS011;5411;58.386;15.560;2024-03-25T10:57:46;3.00;;;2.00;;
10719;SDS011;5411;58.386;15.560;2024-03-25T11:00:13;2.83;;;1.83;;
10719;SDS011;5411;58.386;15.560;2024-03-25T11:02:42;1.90;;;1.80;;
10719;SDS011;5411;58.386;15.560;2024-03-25T11:05:08;3.93;;;2.00;;
10719;SDS011;5411;58.386;15.560;2024-03-25T11:07:36;2.73;;;1.60;;
10719;SDS011;5411;58.386;15.560;2024-03-25T11:10:05;2.33;;;1.63;;
10719;SDS011;5411;58.386;15.560;2024-03-25T11:12:34;2.63;;;1.80;;
10719;SDS011;5411;58.386;15.560;2024-03-25T11:15:02;3.53;;;1.70;;
10719;SDS011;5411;58.386;15.560;2024-03-25T11:17:29;2.23;;;1.73;;
10719;SDS011;5411;58.386;15.560;2024-03-25T11:20:12;3.60;;;1.60;;
10719;SDS011;5411;58.386;15.560;2024-03-25T11:22:50;2.13;;;1.70;;
10719;SDS011;5411;58.386;15.560;2024-03-25T11:25:17;2.17;;;1.53;;
10719;SDS011;5411;58.386;15.560;2024-03-25T11:27:46;2.07;;;1.50;;
10719;SDS011;5411;58.386;15.560;2024-03-25T11:30:13;2.80;;;1.60;;
10719;SDS011;5411;58.386;15.560;2024-03-25T11:35:18;1.97;;;1.73;;
10719;SDS011;5411;58.386;15.560;2024-03-25T11:37:45;2.27;;;1.90;;
10719;SDS011;5411;58.386;15.560;2024-03-25T11:40:11;2.43;;;1.70;;
10719;SDS011;5411;58.386;15.560;2024-03-25T11:42:39;3.23;;;1.80;;
10719;SDS011;5411;58.386;15.560;2024-03-25T11:45:18;3.43;;;2.10;;
10719;SDS011;5411;58.386;15.560;2024-03-25T11:47:46;2.00;;;1.70;;
10719;SDS011;5411;58.386;15.560;2024-03-25T11:50:17;3.17;;;1.70;;
10719;SDS011;5411;58.386;15.560;2024-03-25T11:52:44;4.00;;;1.50;;
10719;SDS011;5411;58.386;15.560;2024-03-25T11:55:19;4.97;;;1.70;;
10719;SDS011;5411;58.386;15.560;2024-03-25T11:57:54;2.20;;;1.70;;
10719;SDS011;5411;58.386;15.560;2024-03-25T12:00:23;1.90;;;1.60;;
10719;SDS011;5411;58.386;15.560;2024-03-25T12:02:50;2.10;;;1.67;;
10719;SDS011;5411;58.386;15.560;2024-03-25T12:05:16;2.93;;;1.80;;
10719;SDS011;5411;58.386;15.560;2024-03-25T12:07:43;1.93;;;1.73;;
10719;SDS011;5411;58.386;15.560;2024-03-25T12:10:09;2.33;;;1.83;;
10719;SDS011;5411;58.386;15.560;2024-03-25T12:12:55;4.70;;;1.67;;
10719;SDS011;5411;58.386;15.560;2024-03-25T12:15:21;2.70;;;2.00;;
10719;SDS011;5411;58.386;15.560;2024-03-25T12:17:48;2.20;;;1.80;;
10719;SDS011;5411;58.386;15.560;2024-03-25T12:20:14;2.00;;;1.70;;
10719;SDS011;5411;58.386;15.560;2024-03-25T12:22:43;2.30;;;2.10;;
10719;SDS011;5411;58.386;15.560;2024-03-25T12:25:09;3.93;;;2.00;;
10719;SDS011;5411;58.386;15.560;2024-03-25T12:27:36;4.23;;;1.80;;
10719;SDS011;5411;58.386;15.560;2024-03-25T12:30:09;4.17;;;1.70;;
10719;SDS011;5411;58.386;15.560;2024-03-25T12:32:36;2.57;;;1.47;;
10719;SDS011;5411;58.386;15.560;2024-03-25T12:35:03;1.87;;;1.57;;
10719;SDS011;5411;58.386;15.560;2024-03-25T12:37:36;2.70;;;1.83;;
10719;SDS011;5411;58.386;15.560;2024-03-25T12:40:06;2.30;;;1.47;;
10719;SDS011;5411;58.386;15.560;2024-03-25T12:42:33;1.80;;;1.70;;
10719;SDS011;5411;58.386;15.560;2024-03-25T12:44:59;1.70;;;1.60;;
10719;SDS011;5411;58.386;15.560;2024-03-25T12:47:25;3.17;;;2.03;;
10719;SDS011;5411;58.386;15.560;2024-03-25T12:49:51;5.30;;;1.90;;
10719;SDS011;5411;58.386;15.560;2024-03-25T12:52:17;1.80;;;1.70;;
10719;SDS011;5411;58.386;15.560;2024-03-25T12:54:43;3.63;;;1.70;;
10719;SDS011;5411;58.386;15.560;2024-03-25T12:57:13;3.97;;;1.70;;
10719;SDS011;5411;58.386;15.560;2024-03-25T12:59:39;3.57;;;1.73;;
10719;SDS011;5411;58.386;15.560;2024-03-25T13:02:04;3.23;;;2.07;;
10719;SDS011;5411;58.386;15.560;2024-03-25T13:04:38;2.17;;;1.80;;
10719;SDS011;5411;58.386;15.560;2024-03-25T13:07:05;2.07;;;1.90;;
10719;SDS011;5411;58.386;15.560;2024-03-25T13:09:31;3.57;;;2.00;;
10719;SDS011;5411;58.386;15.560;2024-03-25T13:11:58;2.90;;;1.83;;
10719;SDS011;5411;58.386;15.560;2024-03-25T13:14:24;2.97;;;2.10;;
10719;SDS011;5411;58.386;15.560;2024-03-25T13:16:51;3.33;;;1.97;;
10719;SDS011;5411;58.386;15.560;2024-03-25T13:19:17;3.43;;;2.37;;
10719;SDS011;5411;58.386;15.560;2024-03-25T13:21:44;2.87;;;1.47;;
10719;SDS011;5411;58.386;15.560;2024-03-25T13:24:10;2.37;;;1.70;;
10719;SDS011;5411;58.386;15.560;2024-03-25T13:26:36;2.40;;;1.60;;
10719;SDS011;5411;58.386;15.560;2024-03-25T13:29:02;1.90;;;1.80;;
10719;SDS011;5411;58.386;15.560;2024-03-25T13:31:28;3.33;;;2.10;;
10719;SDS011;5411;58.386;15.560;2024-03-25T13:33:57;2.63;;;1.80;;
10719;SDS011;5411;58.386;15.560;2024-03-25T13:36:23;2.47;;;1.93;;
10719;SDS011;5411;58.386;15.560;2024-03-25T13:38:49;2.90;;;1.73;;
10719;SDS011;5411;58.386;15.560;2024-03-25T13:41:14;2.87;;;1.90;;
10719;SDS011;5411;58.386;15.560;2024-03-25T13:43:43;4.20;;;2.43;;
10719;SDS011;5411;58.386;15.560;2024-03-25T13:46:09;4.57;;;1.63;;
10719;SDS011;5411;58.386;15.560;2024-03-25T13:48:36;3.17;;;1.87;;
10719;SDS011;5411;58.386;15.560;2024-03-25T13:51:02;2.53;;;1.57;;
10719;SDS011;5411;58.386;15.560;2024-03-25T13:53:28;2.20;;;2.03;;
10719;SDS011;5411;58.386;15.560;2024-03-25T13:55:54;2.57;;;2.07;;
10719;SDS011;5411;58.386;15.560;2024-03-25T13:58:20;1.53;;;1.43;;
10719;SDS011;5411;58.386;15.560;2024-03-25T14:00:45;4.80;;;1.87;;
10719;SDS011;5411;58.386;15.560;2024-03-25T14:03:11;3.20;;;1.70;;
10719;SDS011;5411;58.386;15.560;2024-03-25T14:05:40;2.30;;;1.90;;
10719;SDS011;5411;58.386;15.560;2024-03-25T14:08:07;3.77;;;1.83;;
10719;SDS011;5411;58.386;15.560;2024-03-25T14:10:32;2.60;;;1.77;;
10719;SDS011;5411;58.386;15.560;2024-03-25T14:13:00;3.03;;;1.73;;
10719;SDS011;5411;58.386;15.560;2024-03-25T14:15:25;3.77;;;2.30;;
10719;SDS011;5411;58.386;15.560;2024-03-25T14:17:51;2.77;;;1.60;;
10719;SDS011;5411;58.386;15.560;2024-03-25T14:20:17;2.93;;;1.70;;
10719;SDS011;5411;58.386;15.560;2024-03-25T14:22:43;1.70;;;1.50;;
10719;SDS011;5411;58.386;15.560;2024-03-25T14:25:11;1.53;;;1.43;;
10719;SDS011;5411;58.386;15.560;2024-03-25T14:27:38;2.87;;;1.63;;
10719;SDS011;5411;58.386;15.560;2024-03-25T14:30:04;4.10;;;1.80;;
10719;SDS011;5411;58.386;15.560;2024-03-25T14:32:30;4.60;;;1.80;;
10719;SDS011;5411;58.386;15.560;2024-03-25T14:34:56;4.43;;;1.67;;
10719;SDS011;5411;58.386;15.560;2024-03-25T14:37:22;2.53;;;1.50;;
10719;SDS011;5411;58.386;15.560;2024-03-25T14:39:48;1.67;;;1.57;;
10719;SDS011;5411;58.386;15.560;2024-03-25T14:42:14;5.90;;;1.60;;
10719;SDS011;5411;58.386;15.560;2024-03-25T14:44:42;2.53;;;1.80;;
10719;SDS011;5411;58.386;15.560;2024-03-25T14:47:08;1.40;;;1.30;;
10719;SDS011;5411;58.386;15.560;2024-03-25T14:49:37;3.33;;;1.67;;
10719;SDS011;5411;58.386;15.560;2024-03-25T14:52:02;3.80;;;1.63;;
10719;SDS011;5411;58.386;15.560;2024-03-25T14:54:37;3.93;;;1.67;;